createdAt,value
2018-05-16T00:01:07.182Z,18.20
2018-05-16T00:03:34.726Z,18.10
2018-05-16T00:06:02.994Z,18.00
2018-05-16T00:08:30.494Z,18.00
2018-05-16T00:10:58.789Z,18.00
2018-05-16T00:13:27.049Z,18.00
2018-05-16T00:15:55.337Z,17.90
2018-05-16T00:18:22.865Z,17.90
2018-05-16T00:20:52.491Z,18.00
2018-05-16T00:23:21.616Z,17.90
2018-05-16T00:25:51.024Z,17.80
2018-05-16T00:28:18.517Z,17.90
2018-05-16T00:30:46.797Z,18.00
2018-05-16T00:33:14.291Z,18.00
2018-05-16T00:35:42.580Z,18.10
2018-05-16T00:38:11.134Z,18.00
2018-05-16T00:40:39.422Z,18.00
2018-05-16T00:43:07.680Z,17.90
2018-05-16T00:45:35.225Z,17.90
2018-05-16T00:48:03.492Z,18.10
2018-05-16T00:50:31.748Z,18.10
2018-05-16T00:53:00.074Z,18.00
2018-05-16T00:55:28.342Z,17.90
2018-05-16T00:57:55.862Z,17.90
2018-05-16T01:00:24.169Z,17.90
2018-05-16T01:02:52.825Z,18.00
2018-05-16T01:05:21.592Z,18.00
2018-05-16T01:07:50.287Z,17.90
2018-05-16T01:10:18.579Z,17.80
2018-05-16T01:12:46.866Z,17.80
2018-05-16T01:15:14.354Z,17.80
2018-05-16T01:17:42.625Z,17.80
2018-05-16T01:20:10.917Z,17.80
2018-05-16T01:22:39.189Z,17.70
2018-05-16T01:25:06.753Z,17.70
2018-05-16T01:27:34.248Z,17.60
2018-05-16T01:30:02.509Z,17.60
2018-05-16T01:32:30.800Z,17.60
2018-05-16T01:34:59.063Z,17.60
2018-05-16T01:37:26.597Z,17.60
2018-05-16T01:39:54.891Z,17.80
2018-05-16T01:42:22.389Z,17.80
2018-05-16T01:44:51.624Z,17.80
2018-05-16T01:47:20.598Z,17.70
2018-05-16T01:49:48.861Z,17.70
2018-05-16T01:52:16.389Z,17.70
2018-05-16T01:54:44.686Z,17.80
2018-05-16T01:57:12.988Z,17.80
2018-05-16T01:59:42.341Z,17.80
2018-05-16T02:02:11.578Z,17.80
2018-05-16T02:04:39.110Z,17.70
2018-05-16T02:07:07.409Z,17.90
2018-05-16T02:09:35.719Z,17.90
2018-05-16T02:12:03.987Z,17.80
2018-05-16T02:14:31.510Z,17.80
2018-05-16T02:16:59.777Z,17.70
2018-05-16T02:19:28.084Z,17.70
2018-05-16T02:21:55.582Z,17.70
2018-05-16T02:24:23.873Z,17.80
2018-05-16T02:26:52.632Z,17.70
2018-05-16T02:29:20.964Z,17.70
2018-05-16T02:31:48.506Z,17.70
2018-05-16T02:34:16.025Z,17.70
2018-05-16T02:36:44.344Z,18.00
2018-05-16T02:39:12.936Z,17.90
2018-05-16T02:41:42.348Z,17.80
2018-05-16T02:44:11.152Z,17.80
2018-05-16T02:46:39.431Z,17.80
2018-05-16T02:49:07.753Z,17.70
2018-05-16T02:51:36.021Z,17.70
2018-05-16T02:54:03.555Z,17.70
2018-05-16T02:56:31.062Z,17.70
2018-05-16T02:58:59.361Z,17.90
2018-05-16T03:01:27.621Z,17.80
2018-05-16T03:03:55.941Z,17.80
2018-05-16T03:06:23.441Z,17.80
2018-05-16T03:08:51.035Z,17.80
2018-05-16T03:11:19.336Z,17.80
2018-05-16T03:13:47.601Z,17.70
2018-05-16T03:16:15.905Z,17.70
2018-05-16T03:18:44.177Z,17.90
2018-05-16T03:21:12.776Z,17.80
2018-05-16T03:23:42.273Z,17.80
2018-05-16T03:26:10.175Z,17.70
2018-05-16T03:28:37.709Z,17.80
2018-05-16T03:31:05.981Z,17.80
2018-05-16T03:33:34.278Z,17.80
2018-05-16T03:36:01.795Z,17.70
2018-05-16T03:38:30.052Z,17.70
2018-05-16T03:40:58.353Z,17.70
2018-05-16T03:43:25.849Z,17.70
2018-05-16T03:45:54.159Z,17.70
2018-05-16T03:48:21.660Z,17.70
2018-05-16T03:50:49.957Z,17.40
2018-05-16T03:53:17.473Z,17.40
2018-05-16T03:55:45.012Z,17.40
2018-05-16T03:58:24.589Z,17.40
2018-05-16T04:01:04.708Z,17.40
2018-05-16T04:03:45.568Z,17.40
2018-05-16T04:06:13.101Z,17.40
2018-05-16T04:08:42.696Z,17.50
2018-05-16T04:11:12.009Z,17.40
2018-05-16T04:13:40.714Z,17.30
2018-05-16T04:16:08.252Z,17.40
2018-05-16T04:18:35.765Z,17.30
2018-05-16T04:21:04.044Z,17.30
2018-05-16T04:23:32.377Z,17.30
2018-05-16T04:25:59.921Z,17.30
2018-05-16T04:28:27.427Z,17.30
2018-05-16T04:30:55.699Z,17.30
2018-05-16T04:33:23.228Z,17.30
2018-05-16T04:35:50.719Z,17.30
2018-05-16T04:38:19.029Z,17.20
2018-05-16T04:40:47.305Z,17.20
2018-05-16T04:43:14.797Z,17.20
2018-05-16T04:45:43.090Z,17.20
2018-05-16T04:48:11.713Z,17.10
2018-05-16T04:50:40.978Z,17.10
2018-05-16T04:53:09.257Z,17.10
2018-05-16T04:55:36.793Z,17.00
2018-05-16T04:58:04.285Z,17.10
2018-05-16T05:00:33.244Z,17.00
2018-05-16T05:03:01.543Z,17.00
2018-05-16T05:05:29.069Z,17.00
2018-05-16T05:07:57.381Z,16.80
2018-05-16T05:10:25.672Z,16.90
2018-05-16T05:12:53.937Z,17.00
2018-05-16T05:15:21.465Z,17.00
2018-05-16T05:17:49.768Z,17.00
2018-05-16T05:20:18.049Z,17.00
2018-05-16T05:22:45.557Z,17.00
2018-05-16T05:25:13.856Z,17.00
2018-05-16T05:27:42.119Z,17.00
2018-05-16T05:30:11.415Z,17.10
2018-05-16T05:32:40.332Z,17.20
2018-05-16T05:35:07.860Z,17.10
2018-05-16T05:37:36.146Z,17.10
2018-05-16T05:40:04.437Z,17.30
2018-05-16T05:42:32.974Z,17.20
2018-05-16T05:45:00.500Z,17.30
2018-05-16T05:47:28.765Z,17.30
2018-05-16T05:49:57.058Z,17.30
2018-05-16T05:52:24.557Z,17.30
2018-05-16T05:54:52.876Z,17.30
2018-05-16T05:57:20.366Z,17.30
2018-05-16T05:59:48.669Z,17.40
2018-05-16T06:02:16.973Z,17.50
2018-05-16T06:04:44.488Z,17.40
2018-05-16T06:07:12.764Z,17.30
2018-05-16T06:09:41.549Z,17.30
2018-05-16T06:12:09.048Z,17.30
2018-05-16T06:14:37.565Z,17.40
2018-05-16T06:17:05.857Z,17.40
2018-05-16T06:19:34.208Z,17.30
2018-05-16T06:22:02.875Z,17.60
2018-05-16T06:24:31.181Z,17.70
2018-05-16T06:26:58.742Z,17.60
2018-05-16T06:29:26.986Z,17.50
2018-05-16T06:31:54.493Z,17.50
2018-05-16T06:34:22.785Z,17.50
2018-05-16T06:36:50.300Z,17.50
2018-05-16T06:39:18.706Z,17.80
2018-05-16T06:41:46.096Z,17.70
2018-05-16T06:44:13.626Z,17.70
2018-05-16T06:46:43.157Z,17.80
2018-05-16T06:49:12.180Z,17.80
2018-05-16T06:51:40.897Z,17.80
2018-05-16T06:54:09.066Z,17.90
2018-05-16T06:56:36.594Z,17.90
2018-05-16T06:59:04.877Z,17.90
2018-05-16T07:01:33.259Z,17.90
2018-05-16T07:04:00.762Z,17.90
2018-05-16T07:06:29.007Z,18.00
2018-05-16T07:08:56.541Z,18.00
2018-05-16T07:11:24.796Z,18.20
2018-05-16T07:13:52.318Z,18.20
2018-05-16T07:16:19.860Z,18.40
2018-05-16T07:18:47.356Z,18.40
2018-05-16T07:21:15.654Z,18.60
2018-05-16T07:23:44.100Z,18.60
2018-05-16T07:26:13.022Z,18.80
2018-05-16T07:28:42.201Z,19.00
2018-05-16T07:31:11.321Z,18.90
2018-05-16T07:33:40.313Z,19.00
2018-05-16T07:36:08.672Z,19.10
2018-05-16T07:38:36.946Z,19.10
2018-05-16T07:41:05.234Z,19.30
2018-05-16T07:43:33.545Z,19.40
2018-05-16T07:46:01.041Z,19.40
2018-05-16T07:48:28.563Z,19.30
2018-05-16T07:50:57.218Z,19.50
2018-05-16T07:53:25.523Z,19.50
2018-05-16T07:55:53.854Z,19.70
2018-05-16T07:58:23.374Z,19.70
2018-05-16T08:00:51.686Z,19.80
2018-05-16T08:03:19.237Z,19.80
2018-05-16T08:05:46.757Z,19.90
2018-05-16T08:08:15.129Z,20.00
2018-05-16T08:10:43.406Z,19.90
2018-05-16T08:13:12.038Z,19.90
2018-05-16T08:15:41.078Z,20.00
2018-05-16T08:18:09.385Z,20.10
2018-05-16T08:20:37.692Z,20.10
2018-05-16T08:23:05.244Z,20.10
2018-05-16T08:25:32.776Z,20.10
2018-05-16T08:28:01.078Z,20.20
2018-05-16T08:30:29.342Z,20.10
2018-05-16T08:32:57.292Z,20.10
2018-05-16T08:35:24.825Z,20.00
2018-05-16T08:37:53.111Z,19.70
2018-05-16T08:40:21.408Z,19.70
2018-05-16T08:42:49.700Z,19.70
2018-05-16T08:45:17.237Z,19.70
2018-05-16T08:47:44.740Z,19.80
2018-05-16T08:50:13.106Z,19.90
2018-05-16T08:52:41.876Z,20.00
2018-05-16T08:55:09.381Z,20.00
2018-05-16T08:57:37.659Z,20.30
2018-05-16T09:00:05.920Z,20.40
2018-05-16T09:02:34.228Z,20.50
2018-05-16T09:05:02.512Z,20.70
2018-05-16T09:07:30.769Z,20.60
2018-05-16T09:09:59.065Z,20.50
2018-05-16T09:12:27.240Z,20.50
2018-05-16T09:14:55.542Z,20.50
2018-05-16T09:17:23.129Z,20.50
2018-05-16T09:19:51.382Z,20.60
2018-05-16T09:22:19.749Z,20.70
2018-05-16T09:24:48.017Z,20.80
2018-05-16T09:27:15.543Z,20.80
2018-05-16T09:29:43.805Z,20.90
2018-05-16T09:32:12.592Z,20.90
2018-05-16T09:34:41.011Z,20.90
2018-05-16T09:37:08.520Z,20.90
2018-05-16T09:39:36.816Z,20.90
2018-05-16T09:42:04.353Z,20.80
2018-05-16T09:44:31.938Z,20.80
2018-05-16T09:46:59.444Z,20.70
2018-05-16T09:49:27.757Z,20.80
2018-05-16T09:51:55.335Z,20.70
2018-05-16T09:54:22.925Z,20.90
2018-05-16T09:56:51.183Z,21.30
2018-05-16T09:59:19.485Z,21.40
2018-05-16T10:01:47.012Z,21.40
2018-05-16T10:04:15.288Z,21.50
2018-05-16T10:06:42.832Z,21.50
2018-05-16T10:09:11.821Z,21.60
2018-05-16T10:11:39.329Z,21.60
2018-05-16T10:14:07.597Z,21.90
2018-05-16T10:16:35.136Z,21.90
2018-05-16T10:19:02.815Z,22.00
2018-05-16T10:21:31.210Z,22.10
2018-05-16T10:23:59.253Z,22.10
2018-05-16T10:26:27.281Z,22.20
2018-05-16T10:28:54.822Z,22.30
2018-05-16T10:31:23.094Z,22.20
2018-05-16T10:33:50.710Z,22.20
2018-05-16T10:36:18.230Z,22.30
2018-05-16T10:38:46.569Z,22.20
2018-05-16T10:41:14.879Z,22.20
2018-05-16T10:43:42.505Z,22.20
2018-05-16T10:46:10.718Z,22.20
2018-05-16T10:48:38.288Z,22.40
2018-05-16T10:51:06.575Z,22.40
2018-05-16T10:53:34.122Z,22.40
2018-05-16T10:56:01.778Z,22.60
2018-05-16T10:58:29.278Z,22.70
2018-05-16T11:00:58.496Z,22.90
2018-05-16T11:03:26.098Z,22.80
2018-05-16T11:05:53.563Z,23.00
2018-05-16T11:08:21.065Z,23.00
2018-05-16T11:10:49.359Z,23.30
2018-05-16T11:13:17.672Z,23.20
2018-05-16T11:15:45.568Z,23.20
2018-05-16T11:18:13.133Z,23.20
2018-05-16T11:20:42.241Z,23.30
2018-05-16T11:23:10.158Z,23.20
2018-05-16T11:25:38.529Z,23.10
2018-05-16T11:28:06.038Z,23.10
2018-05-16T11:30:34.406Z,22.90
2018-05-16T11:33:01.945Z,22.90
2018-05-16T11:35:30.244Z,22.90
2018-05-16T11:37:57.752Z,22.90
2018-05-16T11:40:26.044Z,23.00
2018-05-16T11:42:53.549Z,22.90
2018-05-16T11:45:21.982Z,23.30
2018-05-16T11:47:50.366Z,23.40
2018-05-16T11:50:18.684Z,23.30
2018-05-16T11:52:47.144Z,23.10
2018-05-16T11:55:14.700Z,23.10
2018-05-16T11:57:42.268Z,23.30
2018-05-16T12:00:11.479Z,23.40
2018-05-16T12:02:39.790Z,23.50
2018-05-16T12:05:08.054Z,23.50
2018-05-16T12:07:35.566Z,23.50
2018-05-16T12:10:03.936Z,23.40
2018-05-16T12:12:31.434Z,23.30
2018-05-16T12:14:58.946Z,23.50
2018-05-16T12:17:27.276Z,23.70
2018-05-16T12:19:56.183Z,23.70
2018-05-16T12:22:24.485Z,23.80
2018-05-16T12:24:52.757Z,23.90
2018-05-16T12:27:21.243Z,23.60
2018-05-16T12:29:49.517Z,23.50
2018-05-16T12:32:17.820Z,23.50
2018-05-16T12:34:45.330Z,23.50
2018-05-16T12:37:13.593Z,23.80
2018-05-16T12:39:41.886Z,24.00
2018-05-16T12:42:11.201Z,24.00
2018-05-16T12:44:38.925Z,24.00
2018-05-16T12:47:07.185Z,24.00
2018-05-16T12:49:35.472Z,24.30
2018-05-16T12:52:03.022Z,24.20
2018-05-16T12:54:31.410Z,24.20
2018-05-16T12:56:58.908Z,24.20
2018-05-16T12:59:27.231Z,24.20
2018-05-16T13:01:54.726Z,24.20
2018-05-16T13:04:23.017Z,24.10
2018-05-16T13:06:50.517Z,24.10
2018-05-16T13:09:18.822Z,24.00
2018-05-16T13:11:47.944Z,24.00
2018-05-16T13:14:16.204Z,24.00
2018-05-16T13:16:44.494Z,23.90
2018-05-16T13:19:12.796Z,23.60
2018-05-16T13:21:41.769Z,23.60
2018-05-16T13:24:09.298Z,23.50
2018-05-16T13:26:37.648Z,24.00
2018-05-16T13:29:05.969Z,24.00
2018-05-16T13:31:33.489Z,24.00
2018-05-16T13:34:02.769Z,23.90
2018-05-16T13:36:30.301Z,23.90
2018-05-16T13:38:57.872Z,23.70
2018-05-16T13:41:26.145Z,23.50
2018-05-16T13:43:54.645Z,23.50
2018-05-16T13:46:22.977Z,23.50
2018-05-16T13:48:51.273Z,23.60
2018-05-16T13:51:19.596Z,23.60
2018-05-16T13:53:47.859Z,23.80
2018-05-16T13:56:15.400Z,23.80
2018-05-16T13:58:42.893Z,23.90
2018-05-16T14:01:12.389Z,23.70
2018-05-16T14:03:41.707Z,23.70
2018-05-16T14:06:09.233Z,23.70
2018-05-16T14:08:37.504Z,23.70
2018-05-16T14:11:05.827Z,23.60
2018-05-16T14:13:33.342Z,23.60
2018-05-16T14:16:01.666Z,23.70
2018-05-16T14:18:29.937Z,23.90
2018-05-16T14:20:58.216Z,24.00
2018-05-16T14:23:25.730Z,24.00
2018-05-16T14:25:54.005Z,24.20
2018-05-16T14:28:22.507Z,24.20
2018-05-16T14:30:50.800Z,24.40
2018-05-16T14:33:19.112Z,24.50
2018-05-16T14:35:48.170Z,24.40
2018-05-16T14:38:16.677Z,24.40
2018-05-16T14:40:44.949Z,24.10
2018-05-16T14:43:12.864Z,24.10
2018-05-16T14:45:41.968Z,23.50
2018-05-16T14:48:13.105Z,23.10
2018-05-16T14:50:42.520Z,22.70
2018-05-16T14:53:12.508Z,22.50
2018-05-16T14:55:40.818Z,22.30
2018-05-16T14:58:09.086Z,22.00
2018-05-16T15:00:38.280Z,21.80
2018-05-16T15:03:05.810Z,21.70
2018-05-16T15:05:33.414Z,21.60
2018-05-16T15:08:00.939Z,21.70
2018-05-16T15:10:29.238Z,21.80
2018-05-16T15:12:57.677Z,21.80
2018-05-16T15:15:27.608Z,21.80
2018-05-16T15:17:55.132Z,21.80
2018-05-16T15:20:23.408Z,22.00
2018-05-16T15:22:50.912Z,22.00
2018-05-16T15:25:18.524Z,22.00
2018-05-16T15:27:46.785Z,22.20
2018-05-16T15:30:15.110Z,22.30
2018-05-16T15:32:42.639Z,22.30
2018-05-16T15:35:10.972Z,22.40
2018-05-16T15:37:38.513Z,22.40
2018-05-16T15:40:07.733Z,22.40
2018-05-16T15:42:36.041Z,22.40
2018-05-16T15:45:04.537Z,22.40
2018-05-16T15:47:32.805Z,22.10
2018-05-16T15:50:01.165Z,22.10
2018-05-16T15:52:28.681Z,22.10
2018-05-16T15:54:56.944Z,21.80
2018-05-16T15:57:25.205Z,21.50
2018-05-16T15:59:55.496Z,21.60
2018-05-16T16:02:23.045Z,21.60
2018-05-16T16:04:51.312Z,21.90
2018-05-16T16:07:19.807Z,21.90
2018-05-16T16:09:49.195Z,22.10
2018-05-16T16:12:17.251Z,22.10
2018-05-16T16:14:44.793Z,22.30
2018-05-16T16:17:13.096Z,22.50
2018-05-16T16:19:42.360Z,22.60
2018-05-16T16:22:10.289Z,22.60
2018-05-16T16:24:37.810Z,22.70
2018-05-16T16:27:05.311Z,22.80
2018-05-16T16:29:33.606Z,22.50
2018-05-16T16:32:01.117Z,22.50
2018-05-16T16:34:34.891Z,22.50
2018-05-16T16:37:02.396Z,22.40
2018-05-16T16:39:30.701Z,22.10
2018-05-16T16:41:58.196Z,22.10
2018-05-16T16:44:25.700Z,22.10
2018-05-16T16:46:53.237Z,22.10
2018-05-16T16:49:21.550Z,22.20
2018-05-16T16:51:49.210Z,22.20
2018-05-16T16:54:20.377Z,22.20
2018-05-16T16:56:47.885Z,22.30
2018-05-16T16:59:16.185Z,21.90
2018-05-16T17:01:43.721Z,21.90
2018-05-16T17:04:11.908Z,21.80
2018-05-16T17:06:39.433Z,21.50
2018-05-16T17:09:07.740Z,21.20
2018-05-16T17:11:38.930Z,21.10
2018-05-16T17:14:07.338Z,21.00
2018-05-16T17:16:34.745Z,21.00
2018-05-16T17:19:02.260Z,20.70
2018-05-16T17:21:30.561Z,20.50
2018-05-16T17:23:58.090Z,20.50
2018-05-16T17:26:26.369Z,20.60
2018-05-16T17:28:53.874Z,20.60
2018-05-16T17:31:22.177Z,20.50
2018-05-16T17:33:50.453Z,20.30
2018-05-16T17:36:41.642Z,20.30
2018-05-16T17:39:10.316Z,20.20
2018-05-16T17:41:50.284Z,20.20
2018-05-16T17:44:19.062Z,20.10
2018-05-16T17:46:50.516Z,20.10
2018-05-16T17:49:19.286Z,20.00
2018-05-16T17:51:50.477Z,20.10
2018-05-16T17:54:18.341Z,20.10
2018-05-16T17:56:45.861Z,20.00
2018-05-16T17:59:15.102Z,19.90
2018-05-16T18:01:42.605Z,19.90
2018-05-16T18:04:11.056Z,19.90
2018-05-16T18:06:38.548Z,19.90
2018-05-16T18:09:06.848Z,19.90
2018-05-16T18:11:34.442Z,19.90
2018-05-16T18:14:16.833Z,19.80
2018-05-16T18:17:09.870Z,19.70
2018-05-16T18:19:38.161Z,19.50
2018-05-16T18:22:05.677Z,19.50
2018-05-16T18:24:33.177Z,19.40
2018-05-16T18:27:00.689Z,19.40
2018-05-16T18:29:32.208Z,19.50
2018-05-16T18:31:59.733Z,19.50
2018-05-16T18:34:28.256Z,19.40
2018-05-16T18:36:55.780Z,19.30
2018-05-16T18:39:25.013Z,19.10
2018-05-16T18:41:52.533Z,19.00
2018-05-16T18:44:20.066Z,19.10
2018-05-16T18:46:48.929Z,19.10
2018-05-16T18:49:17.860Z,19.00
2018-05-16T18:51:45.278Z,18.90
2018-05-16T18:54:13.158Z,19.10
2018-05-16T18:56:40.669Z,18.90
2018-05-16T18:59:08.957Z,18.60
2018-05-16T19:01:42.729Z,18.60
2018-05-16T19:04:12.344Z,18.30
2018-05-16T19:06:39.834Z,18.30
2018-05-16T19:09:08.126Z,18.20
2018-05-16T19:11:35.617Z,18.10
2018-05-16T19:14:03.141Z,18.10
2018-05-16T19:16:30.775Z,18.00
2018-05-16T19:18:58.286Z,17.90
2018-05-16T19:21:26.574Z,17.90
2018-05-16T19:23:54.077Z,17.80
2018-05-16T19:26:21.621Z,17.80
2018-05-16T19:28:49.117Z,17.80
2018-05-16T19:31:20.393Z,17.80
2018-05-16T19:33:48.508Z,17.80
2018-05-16T19:36:16.001Z,17.80
2018-05-16T19:38:43.525Z,17.90
2018-05-16T19:41:12.697Z,17.70
2018-05-16T19:43:41.255Z,17.80
2018-05-16T19:46:08.865Z,17.70
2018-05-16T19:48:37.044Z,17.50
2018-05-16T19:51:05.347Z,17.30
2018-05-16T19:53:32.899Z,17.30
2018-05-16T19:56:00.431Z,17.40
2018-05-16T19:58:28.809Z,17.10
2018-05-16T20:00:57.010Z,17.20
2018-05-16T20:03:25.395Z,17.20
2018-05-16T20:05:52.821Z,17.20
2018-05-16T20:08:22.113Z,17.00
2018-05-16T20:10:50.370Z,17.00
2018-05-16T20:13:17.913Z,17.00
2018-05-16T20:15:45.432Z,17.10
2018-05-16T20:18:13.003Z,17.00
2018-05-16T20:20:41.893Z,17.00
2018-05-16T20:23:11.050Z,16.80
2018-05-16T20:25:39.354Z,16.80
2018-05-16T20:28:12.114Z,16.80
2018-05-16T20:30:41.429Z,16.60
2018-05-16T20:33:08.933Z,16.50
2018-05-16T20:35:37.257Z,16.40
2018-05-16T20:38:04.761Z,16.40
2018-05-16T20:40:33.053Z,16.30
2018-05-16T20:43:01.313Z,16.20
2018-05-16T20:45:28.845Z,16.20
2018-05-16T20:47:57.133Z,16.00
2018-05-16T20:50:25.396Z,16.00
2018-05-16T20:52:52.929Z,15.90
2018-05-16T20:55:21.178Z,16.20
2018-05-16T20:57:48.709Z,16.20
2018-05-16T21:00:16.986Z,16.10
2018-05-16T21:02:44.528Z,16.10
2018-05-16T21:05:12.083Z,16.10
2018-05-16T21:07:41.075Z,16.10
2018-05-16T21:10:09.383Z,16.00
2018-05-16T21:12:36.890Z,16.00
2018-05-16T21:15:05.161Z,15.90
2018-05-16T21:17:32.688Z,15.90
2018-05-16T21:20:00.955Z,15.80
2018-05-16T21:22:29.115Z,15.70
2018-05-16T21:24:57.405Z,15.70
2018-05-16T21:27:25.689Z,15.80
2018-05-16T21:29:53.996Z,15.60
2018-05-16T21:32:22.254Z,15.40
2018-05-16T21:34:49.802Z,15.40
2018-05-16T21:37:17.293Z,15.30
2018-05-16T21:39:45.592Z,15.40
2018-05-16T21:42:13.861Z,15.40
2018-05-16T21:44:42.178Z,15.40
2018-05-16T21:47:11.181Z,15.30
2018-05-16T21:49:39.461Z,15.30
2018-05-16T21:52:07.000Z,15.30
2018-05-16T21:54:34.493Z,15.40
2018-05-16T21:57:02.026Z,15.20
2018-05-16T21:59:31.371Z,15.10
2018-05-16T22:01:59.377Z,15.10
2018-05-16T22:04:29.335Z,15.10
2018-05-16T22:06:56.849Z,15.10
2018-05-16T22:09:25.137Z,15.00
2018-05-16T22:11:53.412Z,14.90
2018-05-16T22:14:20.947Z,14.80
2018-05-16T22:16:48.461Z,14.70
2018-05-16T22:19:16.752Z,14.50
2018-05-16T22:21:45.026Z,14.60
2018-05-16T22:24:12.556Z,14.60
2018-05-16T22:26:40.848Z,14.50
2018-05-16T22:29:09.114Z,14.50
2018-05-16T22:31:42.943Z,14.50
2018-05-16T22:34:17.868Z,14.60
2018-05-16T22:36:51.855Z,14.50
2018-05-16T22:39:25.780Z,14.40
2018-05-16T22:41:59.387Z,14.40
2018-05-16T22:44:42.634Z,14.30
2018-05-16T22:47:11.030Z,14.30
2018-05-16T22:49:39.317Z,14.20
2018-05-16T22:52:07.617Z,14.10
2018-05-16T22:54:35.148Z,14.10
2018-05-16T22:57:02.674Z,14.30
2018-05-16T22:59:31.023Z,14.30
2018-05-16T23:01:59.259Z,14.40
2018-05-16T23:04:26.752Z,14.30
2018-05-16T23:06:54.268Z,14.20
2018-05-16T23:09:22.559Z,14.20
2018-05-16T23:11:50.085Z,14.10
2018-05-16T23:14:17.595Z,14.20
2018-05-16T23:16:45.111Z,14.10
2018-05-16T23:19:13.361Z,14.00
2018-05-16T23:21:42.095Z,14.00
2018-05-16T23:24:11.437Z,14.10
2018-05-16T23:26:38.966Z,13.80
2018-05-16T23:29:07.230Z,13.80
2018-05-16T23:31:35.522Z,13.70
2018-05-16T23:34:04.773Z,13.70
2018-05-16T23:36:33.037Z,13.80
2018-05-16T23:39:01.336Z,13.80
2018-05-16T23:41:29.601Z,13.60
2018-05-16T23:43:57.869Z,13.50
2018-05-16T23:46:26.152Z,13.30
2018-05-16T23:48:54.585Z,13.40
2018-05-16T23:51:22.876Z,13.30
2018-05-16T23:53:51.185Z,13.20
2018-05-16T23:56:19.881Z,13.10
2018-05-16T23:58:47.400Z,13.10
